createdAt,value
2019-05-12T00:02:13.604Z,2.25
2019-05-12T00:06:18.531Z,2.85
2019-05-12T00:10:23.436Z,3.00
2019-05-12T00:14:28.470Z,3.72
2019-05-12T00:18:33.217Z,3.95
2019-05-12T00:22:43.187Z,5.97
2019-05-12T00:26:50.145Z,5.05
2019-05-12T00:30:54.965Z,5.17
2019-05-12T00:34:59.949Z,6.03
2019-05-12T00:39:08.564Z,4.87
2019-05-12T00:43:13.711Z,5.28
2019-05-12T00:47:18.840Z,5.05
2019-05-12T00:51:24.039Z,4.03
2019-05-12T00:55:29.215Z,5.22
2019-05-12T00:59:34.007Z,6.12
2019-05-12T01:03:38.800Z,7.00
2019-05-12T01:07:43.654Z,4.12
2019-05-12T01:11:48.475Z,4.67
2019-05-12T01:15:53.364Z,3.85
2019-05-12T01:19:58.489Z,4.42
2019-05-12T01:24:03.713Z,4.22
2019-05-12T01:28:08.575Z,4.17
2019-05-12T01:32:24.657Z,4.37
2019-05-12T01:36:29.521Z,4.25
2019-05-12T01:40:34.312Z,5.40
2019-05-12T01:44:39.118Z,3.08
2019-05-12T01:48:43.930Z,4.50
2019-05-12T01:52:48.636Z,4.17
2019-05-12T01:56:53.377Z,3.15
2019-05-12T02:00:58.902Z,3.75
2019-05-12T02:05:09.180Z,3.72
2019-05-12T02:09:18.541Z,2.80
2019-05-12T02:13:22.595Z,2.85
2019-05-12T02:17:28.319Z,3.90
2019-05-12T02:21:33.501Z,3.75
2019-05-12T02:25:38.511Z,3.52
2019-05-12T02:29:43.263Z,3.45
2019-05-12T02:33:48.335Z,5.17
2019-05-12T02:37:55.021Z,2.75
2019-05-12T02:41:59.640Z,2.83
2019-05-12T02:46:05.069Z,2.67
2019-05-12T02:50:10.441Z,2.72
2019-05-12T02:54:18.006Z,2.90
2019-05-12T02:58:25.944Z,3.12
2019-05-12T03:02:34.718Z,3.00
2019-05-12T03:06:44.637Z,3.10
2019-05-12T03:10:51.286Z,3.42
2019-05-12T03:14:56.337Z,3.62
2019-05-12T03:19:04.551Z,3.40
2019-05-12T03:23:07.559Z,2.67
2019-05-12T03:27:14.608Z,3.50
2019-05-12T03:31:24.950Z,3.30
2019-05-12T03:35:32.851Z,4.55
2019-05-12T03:39:34.394Z,4.40
2019-05-12T03:43:39.850Z,3.45
2019-05-12T03:47:45.529Z,2.65
2019-05-12T03:51:54.201Z,2.80
2019-05-12T03:55:57.799Z,6.53
2019-05-12T04:00:05.192Z,2.10
2019-05-12T04:04:10.379Z,1.85
2019-05-12T04:08:16.074Z,2.17
2019-05-12T04:12:20.971Z,3.35
2019-05-12T04:16:25.919Z,2.27
2019-05-12T04:20:30.785Z,1.90
2019-05-12T04:24:36.033Z,2.70
2019-05-12T04:28:40.991Z,2.67
2019-05-12T04:32:45.811Z,2.77
2019-05-12T04:36:51.122Z,2.00
2019-05-12T04:40:56.086Z,1.70
2019-05-12T04:45:04.311Z,1.77
2019-05-12T04:49:07.554Z,1.62
2019-05-12T04:53:14.350Z,1.47
2019-05-12T04:57:21.190Z,1.40
2019-05-12T05:01:25.665Z,3.45
2019-05-12T05:05:31.067Z,1.50
2019-05-12T05:09:35.857Z,1.85
2019-05-12T05:13:41.058Z,1.72
2019-05-12T05:17:45.802Z,1.52
2019-05-12T05:21:50.617Z,1.20
2019-05-12T05:25:55.472Z,1.40
2019-05-12T05:30:00.289Z,3.67
2019-05-12T05:34:05.367Z,2.55
2019-05-12T05:38:10.724Z,1.55
2019-05-12T05:42:16.799Z,1.77
2019-05-12T05:46:23.969Z,2.58
2019-05-12T05:50:29.706Z,2.92
2019-05-12T05:54:38.190Z,1.85
2019-05-12T05:58:47.070Z,2.30
2019-05-12T06:02:48.859Z,1.90
2019-05-12T06:06:56.012Z,1.60
2019-05-12T06:11:00.385Z,1.60
2019-05-12T06:15:08.667Z,2.65
2019-05-12T06:19:14.064Z,2.52
2019-05-12T06:23:19.021Z,1.60
2019-05-12T06:27:24.388Z,1.75
2019-05-12T06:31:30.022Z,1.60
2019-05-12T06:35:40.626Z,1.45
2019-05-12T06:39:43.586Z,1.20
2019-05-12T06:43:48.666Z,1.40
2019-05-12T06:47:56.059Z,3.37
2019-05-12T06:52:03.148Z,1.37
2019-05-12T06:56:09.458Z,1.37
2019-05-12T07:00:14.583Z,1.30
2019-05-12T07:04:21.932Z,2.52
2019-05-12T07:08:32.925Z,1.17
2019-05-12T07:12:43.657Z,1.75
2019-05-12T07:16:41.052Z,2.17
2019-05-12T07:20:45.922Z,1.30
2019-05-12T07:24:52.773Z,1.32
2019-05-12T07:28:58.219Z,1.42
2019-05-12T07:33:04.390Z,1.92
2019-05-12T07:37:15.165Z,3.92
2019-05-12T07:41:23.737Z,2.83
2019-05-12T07:45:28.965Z,1.95
2019-05-12T07:49:38.229Z,4.75
2019-05-12T07:53:40.407Z,4.30
2019-05-12T07:57:52.828Z,2.92
2019-05-12T08:01:52.611Z,1.77
2019-05-12T08:06:01.629Z,2.02
2019-05-12T08:10:07.168Z,2.30
2019-05-12T08:14:15.479Z,2.67
2019-05-12T08:18:18.557Z,2.33
2019-05-12T08:22:25.162Z,2.45
2019-05-12T08:26:30.032Z,3.05
2019-05-12T08:30:40.246Z,3.72
2019-05-12T08:34:43.734Z,3.52
2019-05-12T08:38:48.780Z,2.35
2019-05-12T08:42:54.041Z,2.85
2019-05-12T08:46:59.064Z,3.25
2019-05-12T08:51:13.840Z,5.28
2019-05-12T08:55:16.375Z,3.02
2019-05-12T08:59:24.939Z,4.50
2019-05-12T09:03:30.309Z,4.58
2019-05-12T09:07:35.963Z,3.72
2019-05-12T09:11:39.967Z,3.67
2019-05-12T09:15:45.007Z,3.05
2019-05-12T09:19:55.064Z,3.55
2019-05-12T09:23:56.958Z,4.03
2019-05-12T09:28:03.896Z,3.65
2019-05-12T09:32:09.717Z,5.53
2019-05-12T09:36:19.761Z,4.45
2019-05-12T09:40:22.673Z,8.13
2019-05-12T09:44:30.407Z,4.08
2019-05-12T09:48:39.040Z,3.42
2019-05-12T09:52:44.091Z,3.75
2019-05-12T09:56:54.257Z,4.90
2019-05-12T10:00:56.155Z,4.80
2019-05-12T10:05:01.252Z,4.95
2019-05-12T10:09:08.978Z,6.28
2019-05-12T10:13:14.396Z,7.45
2019-05-12T10:17:20.226Z,5.65
2019-05-12T10:21:26.183Z,6.80
2019-05-12T10:25:31.139Z,7.60
2019-05-12T10:29:35.881Z,6.28
2019-05-12T10:33:43.259Z,5.78
2019-05-12T10:37:48.164Z,8.18
2019-05-12T10:41:54.538Z,9.48
2019-05-12T10:45:59.828Z,7.65
2019-05-12T10:50:05.563Z,6.62
2019-05-12T10:54:13.168Z,9.18
2019-05-12T10:58:17.243Z,8.18
2019-05-12T11:02:26.553Z,11.50
2019-05-12T11:06:28.762Z,12.45
2019-05-12T11:10:33.636Z,10.48
2019-05-12T11:14:38.594Z,11.88
2019-05-12T11:18:44.025Z,12.25
2019-05-12T11:22:48.849Z,12.13
2019-05-12T11:26:53.966Z,9.85
2019-05-12T11:30:58.777Z,11.53
2019-05-12T11:35:05.396Z,15.00
2019-05-12T11:39:10.402Z,13.22
2019-05-12T11:43:15.245Z,14.80
2019-05-12T11:47:24.257Z,11.50
2019-05-12T11:51:30.257Z,13.40
2019-05-12T11:55:34.959Z,17.55
2019-05-12T11:59:40.088Z,13.05
2019-05-12T12:03:45.249Z,12.50
2019-05-12T12:07:52.748Z,12.33
2019-05-12T12:12:02.314Z,14.00
2019-05-12T12:16:11.426Z,12.55
2019-05-12T12:20:22.418Z,12.98
2019-05-12T12:24:29.949Z,13.58
2019-05-12T12:28:31.262Z,9.60
2019-05-12T12:32:39.322Z,15.63
2019-05-12T12:36:44.184Z,12.43
2019-05-12T12:40:49.076Z,12.98
2019-05-12T12:44:58.906Z,13.20
2019-05-12T12:49:06.394Z,14.47
2019-05-12T12:53:07.140Z,13.62
2019-05-12T12:57:13.612Z,15.13
2019-05-12T13:01:26.879Z,13.98
2019-05-12T13:05:25.529Z,14.25
2019-05-12T13:09:30.352Z,9.85
2019-05-12T13:13:35.446Z,19.35
2019-05-12T13:17:41.949Z,13.18
2019-05-12T13:21:49.087Z,12.35
2019-05-12T13:25:54.769Z,13.30
2019-05-12T13:30:05.265Z,12.35
2019-05-12T13:34:09.098Z,14.33
2019-05-12T13:38:14.493Z,11.80
2019-05-12T13:42:19.958Z,15.23
2019-05-12T13:46:24.940Z,12.63
2019-05-12T13:50:30.746Z,11.70
2019-05-12T13:54:35.820Z,12.98
2019-05-12T13:58:43.636Z,12.28
2019-05-12T14:02:48.909Z,10.72
2019-05-12T14:06:54.046Z,11.40
2019-05-12T14:10:59.900Z,12.15
2019-05-12T14:15:05.897Z,14.98
2019-05-12T14:19:10.789Z,9.60
2019-05-12T14:23:15.733Z,13.58
2019-05-12T14:27:27.131Z,12.13
2019-05-12T14:31:35.149Z,10.63
2019-05-12T14:35:41.201Z,10.90
2019-05-12T14:39:46.154Z,10.00
2019-05-12T14:43:55.767Z,9.20
2019-05-12T14:48:00.053Z,13.50
2019-05-12T14:52:03.455Z,11.95
2019-05-12T14:56:09.581Z,11.97
2019-05-12T15:00:19.810Z,13.15
2019-05-12T15:04:27.829Z,14.35
2019-05-12T15:08:36.379Z,14.18
2019-05-12T15:12:35.120Z,11.18
2019-05-12T15:16:40.915Z,13.25
2019-05-12T15:20:49.923Z,10.93
2019-05-12T15:24:57.029Z,12.20
2019-05-12T15:28:59.429Z,14.28
2019-05-12T15:33:04.625Z,9.55
2019-05-12T15:37:10.231Z,16.80
2019-05-12T15:41:18.499Z,14.23
2019-05-12T15:45:23.838Z,14.58
2019-05-12T15:49:28.473Z,12.13
2019-05-12T15:53:35.744Z,16.82
2019-05-12T15:57:39.857Z,13.35
2019-05-12T16:01:44.674Z,12.47
2019-05-12T16:05:49.447Z,11.10
2019-05-12T16:09:54.796Z,13.65
2019-05-12T16:13:59.976Z,11.97
2019-05-12T16:18:09.749Z,15.10
2019-05-12T16:22:11.341Z,15.13
2019-05-12T16:26:17.961Z,13.68
2019-05-12T16:30:26.035Z,12.58
2019-05-12T16:34:36.067Z,11.35
2019-05-12T16:38:37.079Z,12.03
2019-05-12T16:42:48.326Z,14.07
2019-05-12T16:46:48.493Z,9.63
2019-05-12T16:50:53.390Z,13.68
2019-05-12T16:54:58.624Z,11.35
2019-05-12T16:59:08.876Z,12.53
2019-05-12T17:03:10.102Z,12.73
2019-05-12T17:07:17.237Z,13.18
2019-05-12T17:11:27.923Z,9.35
2019-05-12T17:15:28.026Z,13.62
2019-05-12T17:19:34.052Z,14.53
2019-05-12T17:23:39.132Z,17.07
2019-05-12T17:27:44.792Z,12.43
2019-05-12T17:31:50.085Z,15.58
2019-05-12T17:35:55.067Z,11.12
2019-05-12T17:39:59.880Z,13.55
2019-05-12T17:44:05.205Z,12.23
2019-05-12T17:48:10.030Z,12.68
2019-05-12T17:52:18.356Z,14.90
2019-05-12T17:56:25.319Z,16.10
2019-05-12T18:00:29.375Z,14.33
2019-05-12T18:04:37.026Z,18.55
2019-05-12T18:08:40.772Z,15.18
2019-05-12T18:12:45.685Z,11.20
2019-05-12T18:16:53.679Z,11.03
2019-05-12T18:20:57.305Z,11.43
2019-05-12T18:25:04.290Z,10.18
2019-05-12T18:29:08.841Z,13.80
2019-05-12T18:33:13.859Z,10.93
2019-05-12T18:37:19.597Z,10.53
2019-05-12T18:41:24.517Z,11.63
2019-05-12T18:45:29.881Z,8.00
2019-05-12T18:49:34.646Z,11.03
2019-05-12T18:53:39.489Z,33.65
2019-05-12T18:57:47.953Z,11.83
2019-05-12T19:01:50.767Z,13.05
2019-05-12T19:05:58.118Z,11.93
2019-05-12T19:10:03.744Z,14.43
2019-05-12T19:14:08.997Z,7.97
2019-05-12T19:18:18.019Z,9.80
2019-05-12T19:22:20.286Z,9.63
2019-05-12T19:26:26.137Z,13.32
2019-05-12T19:30:30.991Z,22.90
2019-05-12T19:34:37.514Z,11.60
2019-05-12T19:38:43.907Z,14.70
2019-05-12T19:42:53.812Z,11.00
2019-05-12T19:46:55.682Z,12.82
2019-05-12T19:51:15.967Z,37.38
2019-05-12T19:55:08.088Z,14.58
2019-05-12T19:59:14.647Z,11.97
2019-05-12T20:03:19.348Z,10.75
2019-05-12T20:07:24.172Z,13.35
2019-05-12T20:11:31.352Z,14.68
2019-05-12T20:15:40.953Z,13.58
2019-05-12T20:19:43.580Z,18.32
2019-05-12T20:23:50.221Z,20.05
2019-05-12T20:28:03.992Z,19.73
2019-05-12T20:32:01.430Z,14.60
2019-05-12T20:36:06.244Z,28.32
2019-05-12T20:40:13.455Z,20.00
2019-05-12T20:44:19.940Z,17.50
2019-05-12T20:48:26.476Z,16.42
2019-05-12T20:52:30.820Z,14.50
2019-05-12T20:56:36.674Z,11.10
2019-05-12T21:00:45.701Z,13.18
2019-05-12T21:04:59.999Z,10.65
2019-05-12T21:08:56.624Z,12.63
2019-05-12T21:13:01.201Z,17.90
2019-05-12T21:17:09.416Z,9.83
2019-05-12T21:21:14.352Z,16.57
2019-05-12T21:25:19.101Z,10.90
2019-05-12T21:29:25.623Z,10.53
2019-05-12T21:33:31.275Z,12.90
2019-05-12T21:37:45.181Z,9.63
2019-05-12T21:41:50.503Z,12.47
2019-05-12T21:45:50.018Z,11.95
2019-05-12T21:50:06.677Z,9.63
2019-05-12T21:54:21.090Z,10.95
2019-05-12T21:58:25.812Z,10.43
2019-05-12T22:02:34.000Z,9.55
2019-05-12T22:06:38.641Z,9.13
2019-05-12T22:10:43.830Z,11.30
2019-05-12T22:14:48.888Z,9.45
2019-05-12T22:18:58.687Z,9.33
2019-05-12T22:23:09.583Z,11.63
2019-05-12T22:27:16.154Z,10.15
2019-05-12T22:31:16.624Z,10.70
2019-05-12T22:35:24.279Z,9.08
2019-05-12T22:39:28.141Z,11.20
2019-05-12T22:43:41.086Z,10.08
2019-05-12T22:47:39.477Z,8.53
2019-05-12T22:51:46.542Z,10.10
2019-05-12T22:55:53.266Z,11.10
2019-05-12T22:59:57.200Z,11.00
2019-05-12T23:04:03.799Z,12.03
2019-05-12T23:08:09.022Z,11.80
2019-05-12T23:12:18.480Z,13.70
2019-05-12T23:16:26.106Z,11.65
2019-05-12T23:20:30.937Z,13.30
2019-05-12T23:24:37.048Z,11.97
2019-05-12T23:28:45.522Z,11.38
2019-05-12T23:32:51.483Z,15.23
2019-05-12T23:36:56.891Z,12.82
2019-05-12T23:40:59.817Z,13.20
2019-05-12T23:45:04.993Z,12.73
2019-05-12T23:49:09.792Z,18.05
2019-05-12T23:53:14.517Z,10.20
2019-05-12T23:57:19.388Z,12.80
